| time (UTC) | temp F | wind direction | speed knots | gust knots | rain 1hr in | rain 24hr in | rain mn in | humidity % | barometer mb |
| 20260510044503 | 73 | 92 | 4.3 | 8.7 | 0.00 | 0.00 | 0.00 | 56 | 1027.5 |
| 20260510043817 | 73 | 87 | 3.5 | 7.8 | 0.00 | 0.00 | 0.00 | 55 | 1027.4 |
| 20260510042917 | 73 | 88 | 2.6 | 6.1 | 0.00 | 0.00 | 0.00 | 57 | 1027.4 |
| 20260510041804 | 72 | 105 | 1.7 | 3.5 | 0.00 | 0.00 | 0.00 | 56 | 1027.4 |
| 20260510040903 | 73 | 136 | 2.6 | 7.0 | 0.00 | 0.00 | 0.00 | 56 | 1027.4 |
| 20260510040003 | 73 | 81 | 1.7 | 4.3 | 0.00 | 0.00 | 0.00 | 56 | 1027.5 |
| 20260510035403 | 72 | 72 | 2.6 | 7.0 | 0.00 | 0.00 | 0.00 | 57 | 1027.7 |
| 20260510034503 | 73 | 100 | 1.7 | 3.5 | 0.00 | 0.00 | 0.00 | 56 | 1027.6 |
| 20260510033817 | 73 | 99 | 1.7 | 3.5 | 0.00 | 0.00 | 0.00 | 56 | 1027.7 |
| 20260510032703 | 72 | 102 | 1.7 | 5.2 | 0.00 | 0.00 | 0.00 | 57 | 1027.7 |
| 20260510031803 | 72 | 84 | 2.6 | 7.0 | 0.00 | 0.00 | 0.00 | 59 | 1027.9 |
| 20260510030903 | 71 | 125 | 2.6 | 7.0 | 0.00 | 0.00 | 0.00 | 59 | 1027.8 |
| 20260510030218 | 72 | 111 | 2.6 | 6.1 | 0.00 | 0.00 | 0.00 | 58 | 1027.9 |
| 20260510025403 | 72 | 126 | 2.6 | 6.1 | 0.00 | 0.00 | 0.00 | 58 | 1027.9 |
| 20260510024503 | 71 | 147 | 1.7 | 4.3 | 0.00 | 0.00 | 0.00 | 59 | 1028.0 |
| 20260510023603 | 71 | 151 | 1.7 | 4.3 | 0.00 | 0.00 | 0.00 | 59 | 1028.0 |
| 20260510022703 | 71 | 112 | 1.7 | 6.1 | 0.00 | 0.00 | 0.00 | 60 | 1028.1 |
| 20260510021803 | 70 | 123 | 1.7 | 6.1 | 0.00 | 0.00 | 0.00 | 61 | 1028.2 |
| 20260510021119 | 69 | 132 | 1.7 | 6.1 | 0.00 | 0.00 | 0.00 | 61 | 1028.4 |
| 20260510020218 | 69 | 120 | 1.7 | 6.1 | 0.00 | 0.00 | 0.00 | 61 | 1028.5 |
| 20260510015403 | 69 | 85 | 2.6 | 4.3 | 0.00 | 0.00 | 0.00 | 62 | 1028.6 |
| 20260510014503 | 68 | 148 | 0.9 | 3.5 | 0.00 | 0.00 | 0.00 | 63 | 1028.6 |
| 20260510013603 | 67 | 150 | 1.7 | 4.3 | 0.00 | 0.00 | 0.00 | 64 | 1028.8 |
| 20260510012703 | 67 | 144 | 1.7 | 3.5 | 0.00 | 0.00 | 0.00 | 65 | 1028.9 |
| 20260510012019 | 67 | 138 | 0.9 | 3.5 | 0.00 | 0.00 | 0.00 | 64 | 1028.9 |
| 20260510010903 | 66 | 132 | 1.7 | 5.2 | 0.00 | 0.00 | 0.00 | 67 | 1029.0 |
| 20260510010004 | 65 | 120 | 2.6 | 4.3 | 0.00 | 0.00 | 0.00 | 65 | 1029.1 |
| 20260510005403 | 65 | 102 | 1.7 | 5.2 | 0.00 | 0.00 | 0.00 | 68 | 1029.1 |
| 20260510004503 | 63 | 91 | 1.7 | 5.2 | 0.00 | 0.00 | 0.00 | 70 | 1029.3 |
| 20260510003603 | 63 | 82 | 2.6 | 4.3 | 0.00 | 0.00 | 0.00 | 72 | 1029.4 |
| 20260510002703 | 62 | 68 | 1.7 | 4.3 | 0.00 | 0.00 | 0.00 | 75 | 1029.4 |
| 20260510001803 | 60 | 72 | 2.6 | 4.3 | 0.00 | 0.00 | 0.00 | 78 | 1029.3 |
| 20260510000903 | 59 | 82 | 1.7 | 3.5 | 0.00 | 0.00 | 0.00 | 78 | 1029.3 |
| 20260510000004 | 59 | 83 | 1.7 | 3.5 | 0.00 | 0.00 | 0.00 | 78 | 1029.2 |
| 20260509235403 | 58 | 83 | 1.7 | 3.5 | 0.00 | 0.00 | 0.00 | 80 | 1029.2 |
| 20260509234716 | 58 | 87 | 1.7 | 4.3 | 0.00 | 0.00 | 0.00 | 79 | 1029.2 |
| 20260509233603 | 57 | 97 | 1.7 | 3.5 | 0.00 | 0.00 | 0.00 | 81 | 1029.1 |
| 20260509232703 | 56 | 97 | 2.6 | 5.2 | 0.00 | 0.00 | 0.00 | 83 | 1029.2 |
| 20260509231803 | 55 | 97 | 1.7 | 5.2 | 0.00 | 0.00 | 0.00 | 83 | 1029.3 |
| 20260509231118 | 55 | 98 | 1.7 | 3.5 | 0.00 | 0.00 | 0.00 | 83 | 1029.2 |
| 20260509230003 | 54 | 100 | 2.6 | 3.5 | 0.00 | 0.00 | 0.00 | 85 | 1029.3 |
| 20260509225616 | 54 | 104 | 2.6 | 3.5 | 0.00 | 0.00 | 0.00 | 85 | 1029.3 |
| 20260509224503 | 53 | 109 | 1.7 | 3.5 | 0.00 | 0.00 | 0.00 | 87 | 1029.3 |
| 20260509223603 | 52 | 109 | 1.7 | 3.5 | 0.00 | 0.00 | 0.00 | 88 | 1029.2 |
| 20260509222703 | 52 | 109 | 1.7 | 3.5 | 0.00 | 0.00 | 0.00 | 90 | 1029.2 |
| 20260509221803 | 51 | 0 | 0.0 | 0.0 | 0.00 | 0.00 | 0.00 | 92 | 1029.1 |
| 20260509220903 | 50 | 109 | 0.9 | 1.7 | 0.00 | 0.00 | 0.00 | 94 | 1029.1 |
| 20260509220003 | 48 | 109 | 0.0 | 1.7 | 0.00 | 0.00 | 0.00 | 95 | 1029.1 |
| 20260509215616 | 48 | 0 | 0.0 | 0.0 | 0.00 | 0.00 | 0.00 | 95 | 1029.1 |
| 20260509214503 | 46 | 0 | 0.0 | 0.0 | 0.00 | 0.00 | 0.00 | 95 | 1028.8 |
| 20260509213603 | 45 | 0 | 0.0 | 0.0 | 0.00 | 0.00 | 0.00 | 95 | 1028.8 |
| 20260509212703 | 45 | 0 | 0.0 | 0.0 | 0.00 | 0.00 | 0.00 | 94 | 1028.6 |
| 20260509212017 | 45 | 0 | 0.0 | 0.0 | 0.00 | 0.00 | 0.00 | 94 | 1028.6 |
| 20260509210903 | 45 | 0 | 0.0 | 0.0 | 0.00 | 0.00 | 0.00 | 94 | 1028.5 |
| 20260509210003 | 45 | 0 | 0.0 | 0.0 | 0.00 | 0.00 | 0.00 | 94 | 1028.4 |
| 20260509205403 | 45 | 0 | 0.0 | 0.0 | 0.00 | 0.00 | 0.00 | 94 | 1028.3 |
| 20260509204503 | 45 | 260 | 0.0 | 0.9 | 0.00 | 0.00 | 0.00 | 94 | 1028.2 |
| 20260509203603 | 45 | 0 | 0.0 | 0.0 | 0.00 | 0.00 | 0.00 | 95 | 1028.1 |
| 20260509202703 | 45 | 0 | 0.0 | 0.0 | 0.00 | 0.00 | 0.00 | 94 | 1028.0 |
| 20260509201803 | 44 | 0 | 0.0 | 0.0 | 0.00 | 0.00 | 0.00 | 94 | 1028.0 |
| 20260509200903 | 45 | 0 | 0.0 | 0.0 | 0.00 | 0.00 | 0.00 | 94 | 1027.8 |
| 20260509200216 | 45 | 0 | 0.0 | 0.0 | 0.00 | 0.00 | 0.00 | 94 | 1027.8 |
| 20260509195403 | 45 | 0 | 0.0 | 0.0 | 0.00 | 0.00 | 0.00 | 94 | 1027.7 |
| 20260509194719 | 45 | 0 | 0.0 | 0.0 | 0.00 | 0.00 | 0.00 | 94 | 1027.6 |
| 20260509193603 | 45 | 0 | 0.0 | 0.0 | 0.00 | 0.00 | 0.00 | 94 | 1027.4 |
| 20260509192703 | 45 | 0 | 0.0 | 0.0 | 0.00 | 0.00 | 0.00 | 94 | 1027.4 |
| 20260509191803 | 45 | 0 | 0.0 | 0.0 | 0.00 | 0.00 | 0.00 | 94 | 1027.2 |
| 20260509191116 | 45 | 0 | 0.0 | 0.0 | 0.00 | 0.00 | 0.00 | 94 | 1027.2 |
| 20260509190003 | 45 | 0 | 0.0 | 0.0 | 0.00 | 0.00 | 0.00 | 93 | 1027.2 |
| 20260509185403 | 45 | 0 | 0.0 | 0.0 | 0.00 | 0.00 | 0.00 | 93 | 1027.2 |
| 20260509184503 | 46 | 0 | 0.0 | 0.0 | 0.00 | 0.00 | 0.00 | 93 | 1027.0 |
| 20260509183603 | 46 | 0 | 0.0 | 0.0 | 0.00 | 0.00 | 0.00 | 94 | 1026.9 |
| 20260509182703 | 46 | 0 | 0.0 | 0.0 | 0.00 | 0.00 | 0.00 | 94 | 1026.8 |
| 20260509181803 | 46 | 0 | 0.0 | 0.0 | 0.00 | 0.00 | 0.00 | 93 | 1026.7 |
| 20260509180903 | 46 | 0 | 0.0 | 0.0 | 0.00 | 0.00 | 0.00 | 93 | 1026.6 |
| 20260509180003 | 46 | 0 | 0.0 | 0.0 | 0.00 | 0.00 | 0.00 | 93 | 1026.4 |
| 20260509175403 | 46 | 0 | 0.0 | 0.0 | 0.00 | 0.00 | 0.00 | 93 | 1026.5 |
| 20260509174503 | 46 | 0 | 0.0 | 0.0 | 0.00 | 0.00 | 0.00 | 93 | 1026.3 |
| 20260509173603 | 46 | 0 | 0.0 | 0.0 | 0.00 | 0.00 | 0.00 | 93 | 1026.3 |
| 20260509172703 | 47 | 0 | 0.0 | 0.0 | 0.00 | 0.00 | 0.00 | 93 | 1026.3 |
| 20260509171803 | 47 | 0 | 0.0 | 0.0 | 0.00 | 0.00 | 0.00 | 93 | 1026.3 |
| 20260509170903 | 47 | 0 | 0.0 | 0.0 | 0.00 | 0.00 | 0.00 | 93 | 1026.3 |
| 20260509170219 | 47 | 140 | 0.0 | 1.7 | 0.00 | 0.00 | 0.00 | 93 | 1026.3 |
| 20260509165618 | 47 | 140 | 0.0 | 1.7 | 0.00 | 0.00 | 0.00 | 93 | 1026.3 |
| 20260509164503 | 47 | 140 | 0.9 | 1.7 | 0.00 | 0.00 | 0.00 | 92 | 1026.3 |
| 20260509163603 | 47 | 0 | 0.0 | 0.0 | 0.00 | 0.00 | 0.00 | 92 | 1026.3 |
| 20260509162703 | 48 | 140 | 0.0 | 0.9 | 0.00 | 0.00 | 0.00 | 92 | 1026.4 |
| 20260509161803 | 48 | 140 | 0.0 | 1.7 | 0.00 | 0.00 | 0.00 | 93 | 1026.4 |
| 20260509160903 | 48 | 140 | 0.0 | 1.7 | 0.00 | 0.00 | 0.00 | 92 | 1026.5 |
| 20260509160003 | 47 | 140 | 0.0 | 1.7 | 0.00 | 0.00 | 0.00 | 92 | 1026.5 |
| 20260509155403 | 47 | 140 | 0.0 | 1.7 | 0.00 | 0.00 | 0.00 | 91 | 1026.5 |
| 20260509154503 | 48 | 0 | 0.0 | 0.0 | 0.00 | 0.00 | 0.00 | 91 | 1026.4 |
| 20260509153603 | 48 | 0 | 0.0 | 0.0 | 0.00 | 0.00 | 0.00 | 90 | 1026.5 |
| 20260509152703 | 48 | 0 | 0.0 | 0.0 | 0.00 | 0.00 | 0.00 | 90 | 1026.4 |
| 20260509151803 | 48 | 0 | 0.0 | 0.0 | 0.00 | 0.00 | 0.00 | 90 | 1026.6 |
| 20260509151118 | 48 | 0 | 0.0 | 0.0 | 0.00 | 0.00 | 0.00 | 90 | 1026.6 |
| 20260509150003 | 49 | 0 | 0.0 | 0.0 | 0.00 | 0.00 | 0.00 | 90 | 1026.6 |
| 20260509145403 | 49 | 0 | 0.0 | 0.0 | 0.00 | 0.00 | 0.00 | 90 | 1026.6 |
| 20260509144503 | 49 | 0 | 0.0 | 0.0 | 0.00 | 0.00 | 0.00 | 89 | 1026.6 |
| 20260509143603 | 49 | 0 | 0.0 | 0.0 | 0.00 | 0.00 | 0.00 | 89 | 1026.5 |
| 20260509142703 | 50 | 0 | 0.0 | 0.0 | 0.00 | 0.00 | 0.00 | 88 | 1026.5 |
| 20260509141803 | 50 | 0 | 0.0 | 0.0 | 0.00 | 0.00 | 0.00 | 88 | 1026.4 |
| 20260509140903 | 50 | 0 | 0.0 | 0.0 | 0.00 | 0.00 | 0.00 | 89 | 1026.4 |
| 20260509140005 | 51 | 0 | 0.0 | 0.0 | 0.00 | 0.00 | 0.00 | 89 | 1026.3 |
| 20260509135403 | 51 | 0 | 0.0 | 0.0 | 0.00 | 0.00 | 0.00 | 89 | 1026.4 |
| 20260509134717 | 51 | 140 | 0.0 | 1.7 | 0.00 | 0.00 | 0.00 | 88 | 1026.4 |
| 20260509133816 | 51 | 140 | 0.0 | 1.7 | 0.00 | 0.00 | 0.00 | 88 | 1026.4 |
| 20260509132919 | 52 | 0 | 0.0 | 0.0 | 0.00 | 0.00 | 0.00 | 88 | 1026.4 |
| 20260509131803 | 52 | 0 | 0.0 | 0.0 | 0.00 | 0.00 | 0.00 | 89 | 1026.4 |
| 20260509131118 | 52 | 0 | 0.0 | 0.0 | 0.00 | 0.00 | 0.00 | 89 | 1026.3 |
| 20260509130003 | 52 | 140 | 0.0 | 1.7 | 0.00 | 0.00 | 0.00 | 89 | 1026.3 |
| 20260509125403 | 52 | 140 | 0.0 | 1.7 | 0.00 | 0.00 | 0.00 | 89 | 1026.2 |
| 20260509124503 | 52 | 140 | 0.9 | 1.7 | 0.00 | 0.00 | 0.00 | 89 | 1026.3 |
| 20260509123819 | 52 | 140 | 0.0 | 1.7 | 0.00 | 0.00 | 0.00 | 89 | 1026.4 |
| 20260509122703 | 52 | 140 | 0.0 | 0.9 | 0.00 | 0.00 | 0.00 | 89 | 1026.5 |
| 20260509121803 | 52 | 0 | 0.0 | 0.0 | 0.00 | 0.00 | 0.00 | 89 | 1026.4 |
| 20260509120903 | 52 | 0 | 0.0 | 0.0 | 0.00 | 0.00 | 0.00 | 88 | 1026.5 |
| 20260509120003 | 52 | 0 | 0.0 | 0.0 | 0.00 | 0.00 | 0.00 | 88 | 1026.6 |
| 20260509115403 | 52 | 140 | 0.0 | 1.7 | 0.00 | 0.00 | 0.00 | 88 | 1026.6 |
| 20260509114503 | 52 | 140 | 0.9 | 1.7 | 0.00 | 0.00 | 0.00 | 88 | 1026.7 |
| 20260509113603 | 52 | 0 | 0.0 | 0.0 | 0.00 | 0.00 | 0.00 | 87 | 1026.7 |
| 20260509112703 | 52 | 140 | 0.0 | 1.7 | 0.00 | 0.00 | 0.00 | 87 | 1026.8 |
| 20260509112018 | 52 | 140 | 0.9 | 1.7 | 0.00 | 0.00 | 0.00 | 87 | 1026.7 |
| 20260509110903 | 52 | 140 | 0.0 | 1.7 | 0.00 | 0.00 | 0.00 | 86 | 1026.7 |
| 20260509110003 | 52 | 0 | 0.0 | 0.0 | 0.00 | 0.00 | 0.00 | 86 | 1026.5 |
| 20260509105616 | 53 | 0 | 0.0 | 0.0 | 0.00 | 0.00 | 0.00 | 86 | 1026.6 |
| 20260509104503 | 53 | 140 | 0.0 | 2.6 | 0.00 | 0.00 | 0.00 | 86 | 1026.6 |
| 20260509103603 | 53 | 140 | 0.9 | 1.7 | 0.00 | 0.00 | 0.00 | 85 | 1026.5 |
| 20260509102703 | 53 | 140 | 0.0 | 1.7 | 0.00 | 0.00 | 0.00 | 85 | 1026.5 |
| 20260509101803 | 54 | 0 | 0.0 | 0.0 | 0.00 | 0.00 | 0.00 | 85 | 1026.3 |
| 20260509100903 | 54 | 140 | 0.0 | 1.7 | 0.00 | 0.00 | 0.00 | 84 | 1026.3 |
| 20260509100004 | 54 | 140 | 0.9 | 1.7 | 0.00 | 0.00 | 0.00 | 84 | 1026.2 |
| 20260509095403 | 54 | 140 | 0.9 | 2.6 | 0.00 | 0.00 | 0.00 | 84 | 1026.1 |
| 20260509094503 | 55 | 140 | 0.9 | 2.6 | 0.00 | 0.00 | 0.00 | 84 | 1026.0 |
| 20260509093603 | 55 | 0 | 0.0 | 0.0 | 0.00 | 0.00 | 0.00 | 84 | 1025.9 |
| 20260509092703 | 55 | 140 | 0.0 | 1.7 | 0.00 | 0.00 | 0.00 | 83 | 1026.0 |
| 20260509092017 | 55 | 140 | 0.9 | 2.6 | 0.00 | 0.00 | 0.00 | 83 | 1025.9 |
| 20260509090903 | 56 | 140 | 0.0 | 2.6 | 0.00 | 0.00 | 0.00 | 82 | 1025.8 |
| 20260509090003 | 56 | 140 | 0.9 | 2.6 | 0.00 | 0.00 | 0.00 | 81 | 1025.6 |
| 20260509085619 | 57 | 140 | 0.9 | 2.6 | 0.00 | 0.00 | 0.00 | 81 | 1025.5 |
| 20260509084503 | 58 | 140 | 0.0 | 1.7 | 0.00 | 0.00 | 0.00 | 78 | 1025.4 |
| 20260509083603 | 59 | 0 | 0.0 | 0.0 | 0.00 | 0.00 | 0.00 | 77 | 1025.3 |
| 20260509082917 | 60 | 0 | 0.0 | 0.0 | 0.00 | 0.00 | 0.00 | 76 | 1025.2 |
| 20260509081803 | 60 | 140 | 0.0 | 1.7 | 0.00 | 0.00 | 0.00 | 75 | 1025.0 |
| 20260509080903 | 60 | 140 | 0.0 | 1.7 | 0.00 | 0.00 | 0.00 | 75 | 1024.7 |
| 20260509080003 | 61 | 143 | 1.7 | 8.7 | 0.00 | 0.00 | 0.00 | 74 | 1024.5 |
| 20260509075403 | 61 | 221 | 1.7 | 8.7 | 0.00 | 0.00 | 0.00 | 75 | 1024.4 |
| 20260509074503 | 62 | 277 | 1.7 | 2.6 | 0.00 | 0.00 | 0.00 | 72 | 1024.0 |
| 20260509073603 | 63 | 277 | 0.9 | 1.7 | 0.00 | 0.00 | 0.00 | 69 | 1023.9 |
| 20260509072703 | 64 | 277 | 0.9 | 2.6 | 0.00 | 0.00 | 0.00 | 67 | 1023.9 |
| 20260509071803 | 66 | 277 | 0.0 | 1.7 | 0.00 | 0.00 | 0.00 | 64 | 1023.8 |
| 20260509070903 | 67 | 277 | 0.9 | 2.6 | 0.00 | 0.00 | 0.00 | 60 | 1023.7 |
| 20260509070003 | 69 | 0 | 0.0 | 0.0 | 0.00 | 0.00 | 0.00 | 55 | 1023.6 |
| 20260509065403 | 69 | 0 | 0.0 | 0.0 | 0.00 | 0.00 | 0.00 | 54 | 1023.6 |
| 20260509064503 | 70 | 0 | 0.0 | 0.0 | 0.00 | 0.00 | 0.00 | 53 | 1023.5 |
| 20260509063603 | 70 | 100 | 0.0 | 1.7 | 0.00 | 0.00 | 0.00 | 53 | 1023.4 |
| 20260509062703 | 70 | 100 | 0.9 | 1.7 | 0.00 | 0.00 | 0.00 | 50 | 1023.3 |
| 20260509061803 | 71 | 100 | 0.9 | 2.6 | 0.00 | 0.00 | 0.00 | 50 | 1023.2 |
| 20260509060903 | 71 | 100 | 0.0 | 1.7 | 0.00 | 0.00 | 0.00 | 50 | 1023.2 |
| 20260509060004 | 71 | 100 | 0.0 | 1.7 | 0.00 | 0.00 | 0.00 | 49 | 1023.1 |
| 20260509055403 | 70 | 100 | 0.9 | 5.2 | 0.00 | 0.00 | 0.00 | 50 | 1023.0 |
| 20260509054503 | 70 | 101 | 0.9 | 5.2 | 0.00 | 0.00 | 0.00 | 51 | 1023.0 |
| 20260509053817 | 70 | 102 | 0.0 | 0.9 | 0.00 | 0.00 | 0.00 | 51 | 1023.0 |
| 20260509052703 | 70 | 102 | 0.0 | 1.7 | 0.00 | 0.00 | 0.00 | 50 | 1022.9 |
| 20260509052019 | 70 | 102 | 0.0 | 1.7 | 0.00 | 0.00 | 0.00 | 51 | 1022.8 |
| 20260509050903 | 70 | 100 | 1.7 | 3.5 | 0.00 | 0.00 | 0.00 | 50 | 1022.7 |
| 20260509050003 | 70 | 91 | 0.9 | 3.5 | 0.00 | 0.00 | 0.00 | 50 | 1022.9 |
| 20260509045403 | 70 | 91 | 1.7 | 3.5 | 0.00 | 0.00 | 0.00 | 49 | 1022.9 |